createdAt,value
2022-12-23T00:02:08.097Z,9.45
2022-12-23T00:05:10.285Z,9.77
2022-12-23T00:08:12.204Z,10.07
2022-12-23T00:11:17.704Z,9.88
2022-12-23T00:14:38.343Z,11.50
2022-12-23T00:17:45.462Z,10.40
2022-12-23T00:20:47.238Z,11.45
2022-12-23T00:23:50.685Z,12.23
2022-12-23T00:26:52.532Z,10.20
2022-12-23T00:29:54.358Z,9.80
2022-12-23T00:32:56.156Z,10.13
2022-12-23T00:35:58.619Z,9.57
2022-12-23T00:39:18.980Z,9.93
2022-12-23T00:42:39.269Z,10.02
2022-12-23T00:45:41.184Z,9.20
2022-12-23T00:49:01.597Z,9.27
2022-12-23T00:52:05.551Z,9.15
2022-12-23T00:55:07.783Z,9.50
2022-12-23T00:58:09.637Z,10.07
2022-12-23T01:01:30.027Z,9.60
2022-12-23T01:04:50.637Z,10.27
2022-12-23T01:07:53.119Z,10.07
2022-12-23T01:10:55.489Z,10.77
2022-12-23T01:13:58.727Z,12.38
2022-12-23T01:17:00.812Z,10.20
2022-12-23T01:20:02.894Z,10.90
2022-12-23T01:23:04.892Z,10.20
2022-12-23T01:26:08.140Z,10.65
2022-12-23T01:29:10.018Z,10.82
2022-12-23T01:32:11.900Z,11.40
2022-12-23T01:35:13.976Z,10.57
2022-12-23T01:38:15.942Z,11.20
2022-12-23T01:41:42.715Z,10.68
2022-12-23T01:44:58.212Z,11.48
2022-12-23T01:48:03.327Z,11.05
2022-12-23T01:51:10.921Z,10.98
2022-12-23T01:54:13.021Z,11.43
2022-12-23T01:57:15.707Z,12.23
2022-12-23T02:00:36.669Z,11.23
2022-12-23T02:03:44.675Z,11.77
2022-12-23T02:07:08.000Z,11.98
2022-12-23T02:10:10.349Z,11.50
2022-12-23T02:13:22.404Z,11.43
2022-12-23T02:16:24.421Z,11.30
2022-12-23T02:19:57.109Z,11.17
2022-12-23T02:23:18.515Z,10.67
2022-12-23T02:26:35.536Z,11.10
2022-12-23T02:30:01.807Z,12.48
2022-12-23T02:33:29.920Z,10.55
2022-12-23T02:36:47.062Z,10.93
2022-12-23T02:39:58.828Z,11.30
2022-12-23T02:43:16.036Z,11.43
2022-12-23T02:46:43.688Z,11.07
2022-12-23T02:49:51.727Z,12.02
2022-12-23T02:52:57.333Z,11.40
2022-12-23T02:56:02.158Z,11.25
2022-12-23T02:59:13.108Z,12.43
2022-12-23T03:02:15.485Z,11.88
2022-12-23T03:05:28.077Z,11.35
2022-12-23T03:08:43.505Z,11.85
2022-12-23T03:11:57.491Z,13.35
2022-12-23T03:15:24.596Z,13.00
2022-12-23T03:18:29.157Z,12.30
2022-12-23T03:21:55.596Z,11.40
2022-12-23T03:25:06.292Z,11.80
2022-12-23T03:28:16.239Z,12.43
2022-12-23T03:31:24.725Z,11.30
2022-12-23T03:34:31.308Z,11.85
2022-12-23T03:37:37.432Z,11.57
2022-12-23T03:40:43.664Z,11.82
2022-12-23T03:43:55.289Z,11.38
2022-12-23T03:47:10.134Z,11.65
2022-12-23T03:50:15.226Z,11.60
2022-12-23T03:53:24.297Z,11.80
2022-12-23T03:56:33.076Z,11.60
2022-12-23T03:59:39.086Z,11.73
2022-12-23T04:03:04.353Z,12.43
2022-12-23T04:06:12.418Z,11.68
2022-12-23T04:09:21.740Z,11.27
2022-12-23T04:12:27.336Z,10.85
2022-12-23T04:15:29.875Z,11.55
2022-12-23T04:18:31.756Z,13.20
2022-12-23T04:21:33.504Z,11.82
2022-12-23T04:24:35.323Z,11.75
2022-12-23T04:27:37.347Z,11.43
2022-12-23T04:30:39.140Z,12.80
2022-12-23T04:33:41.076Z,11.07
2022-12-23T04:36:42.922Z,11.27
2022-12-23T04:39:44.756Z,10.88
2022-12-23T04:42:46.644Z,12.25
2022-12-23T04:45:52.008Z,11.20
2022-12-23T04:48:53.980Z,11.10
2022-12-23T04:51:55.756Z,11.13
2022-12-23T04:54:57.571Z,12.02
2022-12-23T04:57:59.396Z,11.90
2022-12-23T05:01:06.566Z,11.25
2022-12-23T05:04:10.152Z,10.82
2022-12-23T05:07:12.099Z,10.75
2022-12-23T05:10:14.920Z,11.27
2022-12-23T05:13:16.725Z,11.40
2022-12-23T05:16:18.747Z,10.20
2022-12-23T05:19:20.572Z,10.53
2022-12-23T05:22:22.419Z,9.48
2022-12-23T05:25:24.321Z,9.50
2022-12-23T05:28:26.149Z,9.60
2022-12-23T05:31:28.182Z,8.93
2022-12-23T05:34:30.155Z,9.20
2022-12-23T05:37:32.121Z,9.25
2022-12-23T05:40:33.929Z,10.05
2022-12-23T05:43:36.104Z,9.93
2022-12-23T05:46:38.036Z,9.55
2022-12-23T05:49:40.044Z,8.97
2022-12-23T05:52:42.255Z,9.13
2022-12-23T05:55:44.143Z,9.77
2022-12-23T05:58:45.990Z,9.80
2022-12-23T06:01:47.918Z,9.25
2022-12-23T06:04:49.861Z,9.30
2022-12-23T06:07:51.655Z,9.88
2022-12-23T06:10:54.036Z,9.68
2022-12-23T06:13:55.942Z,8.80
2022-12-23T06:16:58.031Z,8.30
2022-12-23T06:20:00.057Z,8.70
2022-12-23T06:23:03.008Z,8.97
2022-12-23T06:29:06.782Z,8.90
2022-12-23T06:32:08.951Z,9.00
2022-12-23T06:35:10.999Z,8.90
2022-12-23T06:38:12.909Z,9.65
2022-12-23T06:41:15.014Z,8.55
2022-12-23T06:44:17.219Z,8.60
2022-12-23T06:47:19.103Z,9.25
2022-12-23T06:50:20.924Z,8.75
2022-12-23T06:53:22.812Z,8.88
2022-12-23T06:56:24.708Z,9.15
2022-12-23T06:59:27.023Z,9.43
2022-12-23T07:02:28.969Z,9.23
2022-12-23T07:05:37.079Z,9.25
2022-12-23T07:08:39.568Z,9.05
2022-12-23T07:11:41.437Z,9.20
2022-12-23T07:14:43.338Z,9.32
2022-12-23T07:17:45.179Z,8.82
2022-12-23T07:20:47.055Z,8.98
2022-12-23T07:23:48.963Z,8.80
2022-12-23T07:26:51.525Z,8.50
2022-12-23T07:29:53.311Z,8.63
2022-12-23T07:32:55.137Z,8.57
2022-12-23T07:36:00.325Z,8.85
2022-12-23T07:39:02.170Z,8.45
2022-12-23T07:42:33.798Z,8.90
2022-12-23T07:45:27.367Z,8.73
2022-12-23T07:48:29.377Z,9.27
2022-12-23T07:51:32.121Z,9.93
2022-12-23T07:54:36.802Z,10.00
2022-12-23T07:57:40.005Z,9.88
2022-12-23T08:00:41.784Z,9.20
2022-12-23T08:03:43.748Z,9.23
2022-12-23T08:06:45.664Z,10.20
2022-12-23T08:09:47.515Z,9.75
2022-12-23T08:12:49.483Z,9.68
2022-12-23T08:15:59.010Z,9.10
2022-12-23T08:19:00.922Z,10.23
2022-12-23T08:22:03.038Z,10.60
2022-12-23T08:25:05.262Z,10.10
2022-12-23T08:28:07.114Z,9.98
2022-12-23T08:31:22.050Z,10.55
2022-12-23T08:34:24.033Z,9.57
2022-12-23T08:37:25.958Z,9.98
2022-12-23T08:40:27.783Z,12.07
2022-12-23T08:43:35.502Z,10.57
2022-12-23T08:46:38.526Z,10.77
2022-12-23T08:49:40.487Z,10.25
2022-12-23T08:52:42.268Z,10.55
2022-12-23T08:55:47.248Z,9.98
2022-12-23T08:58:51.109Z,10.02
2022-12-23T09:01:54.182Z,10.13
2022-12-23T09:04:57.155Z,10.48
2022-12-23T09:11:01.465Z,9.98
2022-12-23T09:14:04.577Z,10.43
2022-12-23T09:17:06.469Z,10.35
2022-12-23T09:20:08.891Z,10.23
2022-12-23T09:23:10.847Z,10.45
2022-12-23T09:26:19.722Z,9.68
2022-12-23T09:29:21.684Z,10.38
2022-12-23T09:32:23.574Z,10.68
2022-12-23T09:35:25.565Z,10.53
2022-12-23T09:38:27.459Z,10.05
2022-12-23T09:41:48.953Z,10.07
2022-12-23T09:44:53.543Z,9.85
2022-12-23T09:47:56.701Z,10.55
2022-12-23T09:51:00.817Z,10.60
2022-12-23T09:54:30.681Z,11.20
2022-12-23T09:57:32.496Z,10.05
2022-12-23T10:00:42.876Z,11.15
2022-12-23T10:04:02.949Z,10.93
2022-12-23T10:07:04.853Z,11.57
2022-12-23T10:10:17.487Z,12.68
2022-12-23T10:13:27.932Z,12.15
2022-12-23T10:16:38.363Z,12.13
2022-12-23T10:19:47.390Z,11.32
2022-12-23T10:22:50.057Z,10.95
2022-12-23T10:25:52.687Z,11.80
2022-12-23T10:29:01.351Z,11.77
2022-12-23T10:32:27.772Z,11.30
2022-12-23T10:36:00.592Z,11.02
2022-12-23T10:39:17.239Z,11.18
2022-12-23T10:42:36.912Z,11.77
2022-12-23T10:45:41.522Z,10.90
2022-12-23T10:48:46.090Z,11.30
2022-12-23T10:51:59.249Z,18.88
2022-12-23T10:58:18.254Z,12.57
2022-12-23T11:01:26.568Z,15.15
2022-12-23T11:04:35.266Z,12.93
2022-12-23T11:07:45.652Z,12.25
2022-12-23T11:10:49.043Z,11.45
2022-12-23T11:13:51.111Z,11.38
2022-12-23T11:16:52.998Z,10.50
2022-12-23T11:20:19.984Z,10.63
2022-12-23T11:23:33.554Z,10.85
2022-12-23T11:26:36.074Z,10.57
2022-12-23T11:29:43.872Z,10.93
2022-12-23T11:32:45.830Z,11.65
2022-12-23T11:35:47.834Z,11.15
2022-12-23T11:39:09.683Z,11.00
2022-12-23T11:42:19.754Z,11.18
2022-12-23T11:45:24.833Z,11.35
2022-12-23T11:48:29.559Z,11.20
2022-12-23T11:51:31.449Z,11.70
2022-12-23T11:54:34.156Z,11.43
2022-12-23T11:57:42.338Z,11.65
2022-12-23T12:00:56.035Z,11.18
2022-12-23T12:04:06.646Z,12.60
2022-12-23T12:07:13.448Z,11.30
2022-12-23T12:10:22.404Z,11.75
2022-12-23T12:13:28.431Z,12.30
2022-12-23T12:16:56.914Z,11.70
2022-12-23T12:20:21.821Z,12.05
2022-12-23T12:23:40.448Z,11.90
2022-12-23T12:26:47.128Z,12.27
2022-12-23T12:29:55.846Z,12.02
2022-12-23T12:33:05.436Z,12.52
2022-12-23T12:36:16.554Z,12.98
2022-12-23T12:39:30.589Z,12.35
2022-12-23T12:42:40.787Z,11.73
2022-12-23T12:46:00.154Z,12.50
2022-12-23T12:49:13.981Z,12.65
2022-12-23T12:52:20.428Z,13.10
2022-12-23T12:55:32.780Z,12.40
2022-12-23T12:58:34.601Z,13.23
2022-12-23T13:01:39.204Z,12.43
2022-12-23T13:05:05.515Z,12.95
2022-12-23T13:08:36.190Z,12.05
2022-12-23T13:11:54.675Z,12.18
2022-12-23T13:15:04.553Z,13.23
2022-12-23T13:18:33.775Z,13.15
2022-12-23T13:21:44.553Z,12.60
2022-12-23T13:25:20.053Z,13.80
2022-12-23T13:28:46.247Z,13.30
2022-12-23T13:31:59.093Z,12.75
2022-12-23T13:35:22.804Z,13.00
2022-12-23T13:38:49.224Z,14.20
2022-12-23T13:41:56.432Z,13.50
2022-12-23T13:45:03.961Z,12.98
2022-12-23T13:48:24.121Z,12.63
2022-12-23T13:51:25.925Z,13.35
2022-12-23T13:54:27.819Z,13.48
2022-12-23T13:57:50.999Z,12.98
2022-12-23T14:01:07.844Z,22.52
2022-12-23T14:04:52.416Z,16.80
2022-12-23T14:07:54.899Z,16.02
2022-12-23T14:11:02.442Z,17.25
2022-12-23T14:14:07.308Z,12.90
2022-12-23T14:17:20.701Z,12.07
2022-12-23T14:20:34.510Z,13.38
2022-12-23T14:23:44.997Z,14.13
2022-12-23T14:27:14.358Z,29.52
2022-12-23T14:30:36.319Z,24.20
2022-12-23T14:33:38.257Z,13.50
2022-12-23T14:36:40.233Z,12.20
2022-12-23T14:39:43.869Z,22.10
2022-12-23T14:42:45.835Z,21.40
2022-12-23T14:45:49.814Z,15.40
2022-12-23T14:49:09.672Z,13.63
2022-12-23T14:52:38.072Z,13.20
2022-12-23T14:55:47.310Z,14.68
2022-12-23T14:58:56.696Z,22.15
2022-12-23T15:02:16.969Z,14.98
2022-12-23T15:05:23.396Z,13.32
2022-12-23T15:08:31.201Z,14.95
2022-12-23T15:11:34.886Z,22.05
2022-12-23T15:15:23.404Z,14.00
2022-12-23T15:18:25.626Z,17.50
2022-12-23T15:21:30.493Z,30.75
2022-12-23T15:24:32.673Z,24.17
2022-12-23T15:27:36.849Z,17.13
2022-12-23T15:30:52.192Z,15.68
2022-12-23T15:34:05.245Z,15.15
2022-12-23T15:37:13.127Z,13.55
2022-12-23T15:40:25.603Z,14.23
2022-12-23T15:43:27.937Z,13.52
2022-12-23T15:46:31.868Z,19.08
2022-12-23T15:49:34.195Z,21.75
2022-12-23T15:52:41.555Z,14.68
2022-12-23T15:55:43.697Z,14.00
2022-12-23T15:58:45.898Z,12.67
2022-12-23T16:01:48.021Z,14.25
2022-12-23T16:04:55.069Z,14.45
2022-12-23T16:08:13.916Z,14.40
2022-12-23T16:11:18.838Z,14.20
2022-12-23T16:14:32.591Z,14.25
2022-12-23T16:17:36.130Z,14.25
2022-12-23T16:20:45.591Z,13.98
2022-12-23T16:23:51.736Z,14.65
2022-12-23T16:26:56.353Z,15.02
2022-12-23T16:30:10.889Z,14.50
2022-12-23T16:33:48.395Z,13.82
2022-12-23T16:36:50.270Z,13.95
2022-12-23T16:39:52.055Z,15.35
2022-12-23T16:42:54.307Z,15.05
2022-12-23T16:45:57.534Z,15.48
2022-12-23T16:49:04.592Z,14.25
2022-12-23T16:52:09.236Z,14.18
2022-12-23T16:55:19.494Z,14.07
2022-12-23T16:58:21.414Z,14.50
2022-12-23T17:01:29.841Z,15.70
2022-12-23T17:04:31.955Z,16.45
2022-12-23T17:07:33.870Z,18.50
2022-12-23T17:10:37.130Z,16.60
2022-12-23T17:13:39.072Z,15.50
2022-12-23T17:16:40.966Z,17.13
2022-12-23T17:19:42.926Z,15.30
2022-12-23T17:22:47.606Z,15.52
2022-12-23T17:25:49.424Z,14.43
2022-12-23T17:28:51.333Z,15.95
2022-12-23T17:31:53.347Z,16.58
2022-12-23T17:34:55.264Z,15.37
2022-12-23T17:37:57.070Z,15.38
2022-12-23T17:40:59.060Z,15.10
2022-12-23T17:44:01.338Z,15.73
2022-12-23T17:47:10.556Z,15.70
2022-12-23T17:50:12.335Z,16.23
2022-12-23T17:53:18.589Z,17.23
2022-12-23T17:56:21.479Z,15.52
2022-12-23T18:02:25.270Z,16.08
2022-12-23T18:05:33.155Z,16.60
2022-12-23T18:08:34.981Z,14.82
2022-12-23T18:11:41.863Z,18.80
2022-12-23T18:14:45.053Z,22.40
2022-12-23T18:17:47.166Z,20.45
2022-12-23T18:20:51.349Z,15.30
2022-12-23T18:23:55.245Z,18.50
2022-12-23T18:26:57.104Z,15.80
2022-12-23T18:29:58.883Z,17.23
2022-12-23T18:33:00.713Z,16.20
2022-12-23T18:36:02.584Z,15.98
2022-12-23T18:39:04.397Z,15.70
2022-12-23T18:42:06.743Z,17.05
2022-12-23T18:45:20.398Z,25.33
2022-12-23T18:48:22.288Z,15.70
2022-12-23T18:51:24.215Z,15.27
2022-12-23T18:54:25.992Z,15.98
2022-12-23T18:57:27.843Z,17.05
2022-12-23T19:00:31.282Z,18.67
2022-12-23T19:03:33.451Z,16.67
2022-12-23T19:06:35.387Z,19.77
2022-12-23T19:09:37.184Z,16.67
2022-12-23T19:12:39.178Z,18.25
2022-12-23T19:15:44.779Z,17.53
2022-12-23T19:18:48.161Z,17.40
2022-12-23T19:21:50.018Z,16.92
2022-12-23T19:25:04.544Z,16.08
2022-12-23T19:28:09.785Z,16.73
2022-12-23T19:31:14.522Z,18.52
2022-12-23T19:34:16.446Z,18.00
2022-12-23T19:37:18.727Z,18.08
2022-12-23T19:40:20.574Z,17.38
2022-12-23T19:43:22.390Z,17.90
2022-12-23T19:46:24.324Z,18.70
2022-12-23T19:49:26.249Z,18.63
2022-12-23T19:52:28.151Z,19.23
2022-12-23T19:55:29.970Z,18.10
2022-12-23T19:58:34.240Z,18.45
2022-12-23T20:01:36.246Z,20.73
2022-12-23T20:07:40.891Z,18.67
2022-12-23T20:10:43.979Z,19.23
2022-12-23T20:13:47.309Z,18.08
2022-12-23T20:16:49.504Z,18.13
2022-12-23T20:19:52.440Z,17.77
2022-12-23T20:25:56.059Z,17.00
2022-12-23T20:28:58.471Z,20.33
2022-12-23T20:32:00.349Z,19.63
2022-12-23T20:35:02.377Z,20.08
2022-12-23T20:38:04.282Z,21.77
2022-12-23T20:41:11.304Z,24.23
2022-12-23T20:47:35.048Z,20.52
2022-12-23T20:50:41.827Z,20.47
2022-12-23T20:53:43.914Z,19.50
2022-12-23T20:56:45.804Z,20.07
2022-12-23T20:59:47.628Z,19.65
2022-12-23T21:02:49.638Z,22.13
2022-12-23T21:05:56.736Z,19.97
2022-12-23T21:09:00.148Z,24.65
2022-12-23T21:12:02.430Z,24.20
2022-12-23T21:15:05.050Z,21.13
2022-12-23T21:18:06.974Z,19.00
2022-12-23T21:21:09.062Z,18.90
2022-12-23T21:24:11.888Z,20.27
2022-12-23T21:27:13.747Z,18.55
2022-12-23T21:30:15.801Z,19.77
2022-12-23T21:33:17.715Z,22.33
2022-12-23T21:36:23.008Z,20.88
2022-12-23T21:39:24.985Z,21.88
2022-12-23T21:42:26.912Z,22.77
2022-12-23T21:45:28.797Z,19.58
2022-12-23T21:48:32.979Z,20.23
2022-12-23T21:51:39.982Z,20.67
2022-12-23T21:54:42.761Z,19.88
2022-12-23T21:57:44.743Z,19.05
2022-12-23T22:00:46.916Z,19.30
2022-12-23T22:03:50.510Z,20.33
2022-12-23T22:06:52.421Z,19.38
2022-12-23T22:09:54.253Z,20.75
2022-12-23T22:12:56.074Z,20.63
2022-12-23T22:15:58.101Z,19.73
2022-12-23T22:19:01.547Z,22.10
2022-12-23T22:22:03.399Z,20.83
2022-12-23T22:25:05.623Z,22.60
2022-12-23T22:28:07.518Z,19.45
2022-12-23T22:31:29.970Z,22.75
2022-12-23T22:34:31.833Z,20.73
2022-12-23T22:37:33.845Z,20.75
2022-12-23T22:40:35.723Z,21.53
2022-12-23T22:43:38.010Z,22.35
2022-12-23T22:46:40.184Z,20.67
2022-12-23T22:49:42.867Z,19.97
2022-12-23T22:52:44.649Z,20.38
2022-12-23T22:55:55.887Z,19.88
2022-12-23T22:58:57.723Z,20.55
2022-12-23T23:01:59.680Z,20.67
2022-12-23T23:05:01.636Z,19.35
2022-12-23T23:08:03.604Z,18.73
2022-12-23T23:11:05.688Z,21.77
2022-12-23T23:14:07.635Z,19.05
2022-12-23T23:17:09.437Z,21.42
2022-12-23T23:20:11.511Z,20.52
2022-12-23T23:23:13.504Z,20.05
2022-12-23T23:26:16.044Z,19.95
2022-12-23T23:29:17.942Z,19.08
2022-12-23T23:32:19.809Z,20.33
2022-12-23T23:35:21.727Z,20.77
2022-12-23T23:38:25.575Z,22.15
2022-12-23T23:41:28.563Z,22.02
2022-12-23T23:44:31.617Z,20.45
2022-12-23T23:47:35.073Z,20.92
2022-12-23T23:50:37.795Z,20.30
2022-12-23T23:53:40.312Z,20.92
2022-12-23T23:56:42.288Z,21.27
2022-12-23T23:59:44.177Z,21.40
